Time;durP1;ratioP1;P1;durP2;ratioP2;P2;SDS_P1;SDS_P2;PMS_P1;PMS_P2;Temp;Humidity;BMP_temperature;BMP_pressure;BME280_temperature;BME280_humidity;BME280_pressure;Samples;Min_cycle;Max_cycle;Signal;HPM_P1;HPM_P2
2022/12/13 00:01:22;;;;;;;14.93;9.85;;;3.00;99.90;;;;;;4939833;28;20598;-73
2022/12/13 00:03:54;;;;;;;15.80;9.82;;;3.00;99.90;;;;;;4938852;28;20298;-73
2022/12/13 00:06:20;;;;;;;18.35;10.60;;;3.00;99.90;;;;;;4922467;29;20192;-73
2022/12/13 00:08:46;;;;;;;16.47;9.93;;;3.00;99.90;;;;;;4943727;29;20255;-74
2022/12/13 00:11:13;;;;;;;16.95;11.57;;;3.00;99.90;;;;;;4922175;28;20451;-73
2022/12/13 00:13:43;;;;;;;17.45;11.30;;;3.00;99.90;;;;;;4937486;29;20175;-73
2022/12/13 00:16:17;;;;;;;14.50;9.90;;;3.00;99.90;;;;;;4921935;29;20270;-73
2022/12/13 00:18:46;;;;;;;14.27;9.70;;;2.90;99.90;;;;;;4937098;28;20661;-73
2022/12/13 00:21:17;;;;;;;15.52;10.32;;;2.90;99.90;;;;;;4922233;29;20676;-73
2022/12/13 00:23:43;;;;;;;14.70;10.25;;;2.90;99.90;;;;;;4936970;29;20260;-73
2022/12/13 00:26:21;;;;;;;16.65;10.30;;;2.90;99.90;;;;;;4954789;29;20266;-73
2022/12/13 00:28:50;;;;;;;15.57;10.40;;;2.90;99.90;;;;;;4953935;29;20573;-73
2022/12/13 00:31:18;;;;;;;14.32;10.60;;;2.90;99.90;;;;;;4921633;29;20227;-73
2022/12/13 00:33:49;;;;;;;16.73;10.23;;;2.90;99.90;;;;;;4937810;29;20215;-73
2022/12/13 00:36:15;;;;;;;15.65;10.00;;;2.90;99.90;;;;;;4937638;29;20231;-73
2022/12/13 00:38:44;;;;;;;14.50;10.60;;;2.90;99.90;;;;;;4953800;28;20192;-73
2022/12/13 00:41:18;;;;;;;15.45;10.10;;;2.90;99.90;;;;;;4939085;29;20203;-74
2022/12/13 00:43:46;;;;;;;15.75;9.90;;;2.90;99.90;;;;;;4954455;28;20242;-74
2022/12/13 00:46:19;;;;;;;15.70;9.25;;;2.90;99.90;;;;;;4923085;29;20589;-74
2022/12/13 00:48:53;;;;;;;16.00;10.35;;;2.90;99.90;;;;;;4922001;29;20702;-74
2022/12/13 00:51:23;;;;;;;14.95;9.95;;;2.90;99.90;;;;;;4922693;29;20209;-74
2022/12/13 00:53:52;;;;;;;13.68;9.63;;;2.80;99.90;;;;;;4954654;29;20168;-74
2022/12/13 00:56:20;;;;;;;17.10;10.38;;;2.80;99.90;;;;;;4938694;29;20243;-74
2022/12/13 00:58:48;;;;;;;16.73;10.43;;;2.80;99.90;;;;;;4938563;29;20648;-74
2022/12/13 01:01:18;;;;;;;15.23;10.57;;;2.80;99.90;;;;;;4938495;29;20229;-74
2022/12/13 01:03:46;;;;;;;15.38;9.63;;;2.90;99.90;;;;;;4938349;29;20273;-74
2022/12/13 01:06:35;;;;;;;16.98;9.57;;;2.80;99.90;;;;;;4938433;29;20164;-74
2022/12/13 01:09:08;;;;;;;15.38;10.75;;;2.80;99.90;;;;;;4938776;29;20163;-74
2022/12/13 01:11:34;;;;;;;15.10;10.65;;;2.80;99.90;;;;;;4955430;28;20621;-74
2022/12/13 01:14:01;;;;;;;17.02;10.18;;;2.80;99.90;;;;;;4938358;29;20172;-74
2022/12/13 01:16:30;;;;;;;15.20;9.63;;;2.80;99.90;;;;;;4938291;29;20514;-74
2022/12/13 01:18:57;;;;;;;14.93;10.38;;;2.80;99.90;;;;;;4938266;29;20426;-74
2022/12/13 01:21:24;;;;;;;15.68;9.80;;;2.80;99.90;;;;;;4922065;29;20226;-73
2022/12/13 01:23:50;;;;;;;14.35;9.65;;;2.80;99.90;;;;;;4922191;29;20615;-74
2022/12/13 01:26:24;;;;;;;14.70;9.45;;;2.80;99.90;;;;;;4922493;29;20584;-74
2022/12/13 01:28:50;;;;;;;15.45;10.07;;;2.80;99.90;;;;;;4922187;29;20222;-73
2022/12/13 01:31:19;;;;;;;13.98;9.48;;;2.80;99.90;;;;;;4921962;29;20692;-74
2022/12/13 01:33:46;;;;;;;17.95;10.10;;;2.80;99.90;;;;;;4955129;29;20598;-74
2022/12/13 01:36:17;;;;;;;15.60;10.75;;;2.70;99.90;;;;;;4922335;29;20226;-73
2022/12/13 01:38:43;;;;;;;17.85;10.85;;;2.70;99.90;;;;;;4938147;29;20184;-74
2022/12/13 01:41:14;;;;;;;14.70;9.80;;;2.70;99.90;;;;;;4948424;28;20209;-74
2022/12/13 01:43:40;;;;;;;17.00;10.90;;;2.70;99.90;;;;;;4956885;28;20225;-73
2022/12/13 01:46:09;;;;;;;18.87;10.60;;;2.70;99.90;;;;;;4940519;28;20171;-74
2022/12/13 01:48:44;;;;;;;16.15;10.25;;;2.70;99.90;;;;;;4925491;28;20422;-74
2022/12/13 01:51:18;;;;;;;16.27;10.25;;;2.70;99.90;;;;;;4941519;28;20199;-74
2022/12/13 01:53:47;;;;;;;18.38;10.88;;;2.70;99.90;;;;;;4957410;28;20168;-74
2022/12/13 01:56:32;;;;;;;16.10;11.20;;;2.70;99.90;;;;;;4957000;28;20629;-74
2022/12/13 01:59:00;;;;;;;16.50;11.23;;;2.70;99.90;;;;;;4974178;28;20219;-74
2022/12/13 02:01:27;;;;;;;17.25;10.57;;;2.70;99.90;;;;;;4956878;28;20209;-74
2022/12/13 02:03:53;;;;;;;15.32;10.65;;;2.70;99.90;;;;;;4956884;28;20221;-74
2022/12/13 02:06:36;;;;;;;16.92;11.75;;;2.70;99.90;;;;;;4957291;28;20516;-74
2022/12/13 02:09:05;;;;;;;18.10;10.65;;;2.60;99.90;;;;;;4925380;28;20275;-74
2022/12/13 02:11:37;;;;;;;16.33;10.75;;;2.60;99.90;;;;;;4927085;29;20603;-74
2022/12/13 02:14:04;;;;;;;16.30;10.05;;;2.60;99.90;;;;;;4937676;29;20209;-74
2022/12/13 02:16:49;;;;;;;17.02;10.65;;;2.60;99.90;;;;;;4937656;29;20685;-74
2022/12/13 02:19:52;;;;;;;16.95;10.82;;;2.60;99.90;;;;;;4953836;29;20284;-73
2022/12/13 02:22:45;;;;;;;18.40;10.35;;;2.60;99.90;;;;;;4955356;28;20286;-74
2022/12/13 02:25:32;;;;;;;15.32;10.20;;;2.60;99.90;;;;;;4941724;29;20223;-74
2022/12/13 02:28:29;;;;;;;15.60;9.77;;;2.60;99.90;;;;;;4941318;29;20164;-74
2022/12/13 02:31:09;;;;;;;18.95;10.65;;;2.60;99.90;;;;;;4941189;29;20239;-74
2022/12/13 02:33:59;;;;;;;15.32;9.77;;;2.50;99.90;;;;;;4958188;29;20171;-74
2022/12/13 02:36:55;;;;;;;15.50;10.32;;;2.50;99.90;;;;;;4958189;29;20173;-73
2022/12/13 02:39:37;;;;;;;21.10;11.00;;;2.50;99.90;;;;;;4925242;29;20172;-74
2022/12/13 02:42:22;;;;;;;17.92;11.15;;;2.50;99.90;;;;;;4940905;29;20222;-74
2022/12/13 02:45:00;;;;;;;14.77;9.55;;;2.50;99.90;;;;;;4957991;29;20227;-74
2022/12/13 02:47:28;;;;;;;15.25;10.32;;;2.50;99.90;;;;;;4941032;29;20280;-74
2022/12/13 02:49:58;;;;;;;15.52;9.77;;;2.50;99.90;;;;;;4940942;29;20175;-74
2022/12/13 02:52:29;;;;;;;15.90;9.63;;;2.50;99.90;;;;;;4925062;29;20234;-74
2022/12/13 02:54:56;;;;;;;17.38;10.65;;;2.50;99.90;;;;;;4940795;29;20182;-74
2022/12/13 02:57:31;;;;;;;18.55;10.65;;;2.50;99.90;;;;;;4925030;29;20215;-74
2022/12/13 03:00:11;;;;;;;17.85;11.05;;;2.40;99.90;;;;;;4940713;29;20175;-73
2022/12/13 03:03:09;;;;;;;18.70;10.20;;;2.50;99.90;;;;;;4924741;29;20218;-73
2022/12/13 03:08:55;;;;;;;19.77;10.18;;;2.40;99.90;;;;;;4957609;29;20171;-74
2022/12/13 03:11:27;;;;;;;16.73;10.27;;;2.40;99.90;;;;;;4940335;29;20214;-74
2022/12/13 03:14:06;;;;;;;17.73;11.38;;;2.40;99.90;;;;;;4940574;29;20171;-74
2022/12/13 03:16:43;;;;;;;15.98;10.48;;;2.40;99.90;;;;;;4924802;29;20183;-74
2022/12/13 03:19:11;;;;;;;18.27;10.98;;;2.40;99.90;;;;;;4924694;29;20182;-73
2022/12/13 03:21:45;;;;;;;16.05;9.98;;;2.40;99.90;;;;;;4940796;29;20214;-74
2022/12/13 03:24:11;;;;;;;20.85;11.27;;;2.40;99.90;;;;;;4939335;29;20208;-74
2022/12/13 03:26:38;;;;;;;18.98;10.75;;;2.40;99.90;;;;;;4956269;29;20246;-74
2022/12/13 03:29:08;;;;;;;15.23;10.70;;;2.40;99.90;;;;;;4923623;29;20179;-73
2022/12/13 03:31:36;;;;;;;16.52;10.20;;;2.40;99.90;;;;;;4939045;29;20207;-74
2022/12/13 03:34:02;;;;;;;19.95;10.95;;;2.40;99.90;;;;;;4937695;29;20175;-73
2022/12/13 03:36:31;;;;;;;17.77;10.18;;;2.40;99.90;;;;;;4938982;29;20179;-73
2022/12/13 03:38:59;;;;;;;14.40;9.85;;;2.40;99.90;;;;;;4939019;29;20203;-74
2022/12/13 03:41:30;;;;;;;17.88;11.00;;;2.40;99.90;;;;;;4938889;29;20210;-74
2022/12/13 03:44:03;;;;;;;18.58;12.10;;;2.40;99.90;;;;;;4938820;29;20197;-73
2022/12/13 03:46:29;;;;;;;16.23;9.77;;;2.40;99.90;;;;;;4923096;29;20183;-73
2022/12/13 03:48:55;;;;;;;15.47;9.90;;;2.30;99.90;;;;;;4923237;29;20528;-73
2022/12/13 03:51:21;;;;;;;18.77;10.50;;;2.30;99.90;;;;;;4938787;29;20433;-74
2022/12/13 03:53:49;;;;;;;18.83;10.43;;;2.30;99.90;;;;;;4938923;29;20419;-73
2022/12/13 03:56:15;;;;;;;15.65;11.60;;;2.30;99.90;;;;;;4923173;29;20557;-74
2022/12/13 03:58:42;;;;;;;14.80;10.15;;;2.30;99.90;;;;;;4922923;29;20273;-73
2022/12/13 04:01:13;;;;;;;14.52;9.73;;;2.30;99.90;;;;;;4938480;29;20201;-73
2022/12/13 04:03:43;;;;;;;18.58;10.27;;;2.30;99.90;;;;;;4938606;29;20202;-74
2022/12/13 04:06:10;;;;;;;16.73;11.02;;;2.30;99.90;;;;;;4938680;29;20163;-73
2022/12/13 04:08:37;;;;;;;18.00;11.25;;;2.20;99.90;;;;;;4938737;29;20187;-74
2022/12/13 04:13:52;;;;;;;15.90;9.85;;;2.20;99.90;;;;;;4935295;29;20171;-74
2022/12/13 04:16:18;;;;;;;16.65;10.32;;;2.20;99.90;;;;;;4935442;29;20226;-74
2022/12/13 04:18:47;;;;;;;18.77;10.55;;;2.20;99.90;;;;;;4934597;29;20588;-73
2022/12/13 04:21:14;;;;;;;17.90;11.00;;;2.20;99.90;;;;;;4934729;29;20249;-73
2022/12/13 04:23:40;;;;;;;16.00;9.60;;;2.20;99.90;;;;;;4881686;29;1120027;-73
2022/12/13 04:26:09;;;;;;;17.33;10.10;;;2.20;99.90;;;;;;4904232;29;20203;-74
2022/12/13 04:28:35;;;;;;;15.82;10.07;;;2.20;99.90;;;;;;4920078;29;20175;-72
2022/12/13 04:31:01;;;;;;;15.00;10.67;;;2.20;99.90;;;;;;4920042;29;20696;-72
2022/12/13 04:33:31;;;;;;;16.45;10.15;;;2.20;99.90;;;;;;4935818;29;20453;-73
2022/12/13 04:35:57;;;;;;;15.38;10.60;;;2.20;99.90;;;;;;4935813;29;20214;-73
2022/12/13 04:38:23;;;;;;;17.08;9.90;;;2.20;99.90;;;;;;4920023;29;20195;-72
2022/12/13 04:40:49;;;;;;;17.00;10.40;;;2.20;99.90;;;;;;4935500;29;20181;-73
2022/12/13 04:43:15;;;;;;;16.65;11.20;;;2.20;99.90;;;;;;4919776;29;20472;-73
2022/12/13 04:45:46;;;;;;;17.27;10.57;;;2.20;99.90;;;;;;4919278;29;20171;-73
2022/12/13 04:48:12;;;;;;;21.58;10.77;;;2.10;99.90;;;;;;4935439;29;20157;-73
2022/12/13 04:50:38;;;;;;;16.25;9.80;;;2.10;99.90;;;;;;4903991;29;20203;-73
2022/12/13 04:53:14;;;;;;;14.38;9.48;;;2.10;99.90;;;;;;4936506;29;20251;-73
2022/12/13 04:55:41;;;;;;;20.65;10.13;;;2.10;99.90;;;;;;4935619;29;20560;-73
2022/12/13 04:58:18;;;;;;;14.50;9.73;;;2.10;99.90;;;;;;4935265;29;20201;-73
2022/12/13 05:00:45;;;;;;;15.43;10.65;;;2.10;99.90;;;;;;4936453;29;20183;-72
2022/12/13 05:03:11;;;;;;;15.98;9.50;;;2.10;99.90;;;;;;4919330;29;20219;-73
2022/12/13 05:05:40;;;;;;;16.93;10.17;;;2.10;99.90;;;;;;4935256;29;20606;-73
2022/12/13 05:08:07;;;;;;;16.25;9.88;;;2.10;99.90;;;;;;4935231;29;20431;-73
2022/12/13 05:10:34;;;;;;;14.05;10.05;;;2.10;99.90;;;;;;4935138;29;20174;-74
2022/12/13 05:13:00;;;;;;;16.77;10.15;;;2.10;99.90;;;;;;4919420;29;20302;-73
2022/12/13 05:15:27;;;;;;;20.63;11.80;;;2.10;99.90;;;;;;4935085;29;20191;-73
2022/12/13 05:17:53;;;;;;;16.52;10.10;;;2.10;99.90;;;;;;4919286;29;20546;-74
2022/12/13 05:20:19;;;;;;;17.02;10.23;;;2.00;99.90;;;;;;4935027;29;20160;-73
2022/12/13 05:22:47;;;;;;;16.35;10.48;;;2.00;99.90;;;;;;4935691;29;20625;-73
2022/12/13 05:25:13;;;;;;;15.97;9.60;;;2.00;99.90;;;;;;4934946;29;20168;-73
2022/12/13 05:27:39;;;;;;;18.05;10.27;;;2.00;99.90;;;;;;4934964;29;20778;-73
2022/12/13 05:30:08;;;;;;;13.63;9.63;;;2.00;99.90;;;;;;4935066;29;20539;-73
2022/12/13 05:32:42;;;;;;;16.58;10.65;;;2.00;99.90;;;;;;4918764;29;20215;-73
2022/12/13 05:35:08;;;;;;;16.30;9.88;;;2.00;99.90;;;;;;4919174;29;20633;-73
2022/12/13 05:37:55;;;;;;;18.85;11.55;;;2.00;99.80;;;;;;4932884;29;20194;-73
2022/12/13 05:40:23;;;;;;;18.67;10.20;;;2.00;99.80;;;;;;4935828;29;20407;-73
2022/12/13 05:42:49;;;;;;;16.92;11.13;;;2.00;99.80;;;;;;4918974;29;20269;-73
2022/12/13 05:45:17;;;;;;;16.25;10.27;;;2.00;99.80;;;;;;4919272;29;20202;-73
2022/12/13 05:47:46;;;;;;;14.00;9.65;;;2.00;99.90;;;;;;4919003;29;20201;-74
2022/12/13 05:50:14;;;;;;;15.80;9.68;;;2.00;99.80;;;;;;4934676;29;20167;-74
2022/12/13 05:52:40;;;;;;;16.92;9.30;;;2.00;99.80;;;;;;4917317;29;20296;-75
2022/12/13 05:55:10;;;;;;;18.05;11.20;;;2.00;99.80;;;;;;4948336;29;20257;-74
2022/12/13 05:57:38;;;;;;;15.95;10.07;;;2.00;99.80;;;;;;4921559;29;20214;-75
2022/12/13 06:00:06;;;;;;;16.08;10.55;;;1.90;99.80;;;;;;4924272;29;20171;-73
2022/12/13 06:02:39;;;;;;;17.98;10.18;;;1.90;99.80;;;;;;4941093;29;20209;-74
2022/12/13 06:05:06;;;;;;;17.83;10.70;;;1.90;99.80;;;;;;4923946;29;20214;-75
2022/12/13 06:07:35;;;;;;;16.52;10.13;;;1.90;99.70;;;;;;4924541;29;20646;-75
2022/12/13 06:10:05;;;;;;;17.45;10.38;;;1.90;99.70;;;;;;4958970;28;20171;-75
2022/12/13 06:12:33;;;;;;;16.30;9.80;;;1.90;99.70;;;;;;4934858;29;20203;-75
2022/12/13 06:14:59;;;;;;;16.05;11.07;;;1.90;99.70;;;;;;4924070;29;20597;-75
2022/12/13 06:17:28;;;;;;;17.87;11.10;;;1.90;99.70;;;;;;4939798;29;20190;-75
2022/12/13 06:19:57;;;;;;;14.77;9.88;;;1.90;99.70;;;;;;4924330;29;20454;-75
2022/12/13 06:22:27;;;;;;;20.15;10.20;;;1.90;99.70;;;;;;4939795;29;20204;-75
2022/12/13 06:24:56;;;;;;;18.70;10.18;;;1.90;99.70;;;;;;4939177;29;20289;-75
2022/12/13 06:27:22;;;;;;;20.45;10.32;;;1.90;99.60;;;;;;4924012;29;20213;-75
2022/12/13 06:29:48;;;;;;;16.73;9.75;;;1.80;99.60;;;;;;4923558;29;20183;-74
2022/12/13 06:32:15;;;;;;;19.15;10.15;;;1.80;99.60;;;;;;4923676;29;20202;-74
2022/12/13 06:34:41;;;;;;;14.55;8.68;;;1.80;99.60;;;;;;4956292;29;20205;-75
2022/12/13 06:37:09;;;;;;;18.25;10.55;;;1.80;99.60;;;;;;4956829;29;20175;-75
2022/12/13 06:39:35;;;;;;;20.77;11.32;;;1.80;99.90;;;;;;4955988;29;20173;-74
2022/12/13 06:42:07;;;;;;;17.20;10.93;;;1.80;99.60;;;;;;4939313;29;20210;-75
2022/12/13 06:44:35;;;;;;;15.57;10.38;;;1.80;99.60;;;;;;4956306;29;20467;-75
2022/12/13 06:47:03;;;;;;;20.38;11.23;;;1.80;99.60;;;;;;4956519;29;20535;-75
2022/12/13 06:49:32;;;;;;;16.75;10.30;;;1.80;99.60;;;;;;4923705;29;20187;-75
2022/12/13 06:52:00;;;;;;;18.17;11.10;;;1.80;99.60;;;;;;4938571;29;20297;-75
2022/12/13 06:54:26;;;;;;;17.73;10.73;;;1.80;99.60;;;;;;4938359;28;20663;-75
2022/12/13 06:56:52;;;;;;;15.37;10.03;;;1.80;99.60;;;;;;4939262;29;20280;-75
2022/12/13 06:59:21;;;;;;;16.27;10.00;;;1.80;99.60;;;;;;4939723;29;20430;-75
2022/12/13 07:01:49;;;;;;;17.80;10.53;;;1.80;99.50;;;;;;4922949;29;20298;-75
2022/12/13 07:04:15;;;;;;;16.83;9.65;;;1.80;99.60;;;;;;4938599;29;20986;-74
2022/12/13 07:06:41;;;;;;;20.03;11.10;;;1.80;99.50;;;;;;4956008;29;20182;-75
2022/12/13 07:09:07;;;;;;;22.35;11.05;;;1.70;99.50;;;;;;4937846;29;20492;-75
2022/12/13 07:11:38;;;;;;;21.08;11.35;;;1.70;99.50;;;;;;4934954;29;20206;-75
2022/12/13 07:14:09;;;;;;;18.02;10.45;;;1.70;99.50;;;;;;4923135;29;20220;-75
2022/12/13 07:16:35;;;;;;;18.33;11.13;;;1.70;99.50;;;;;;4955648;29;20179;-74
2022/12/13 07:19:04;;;;;;;20.90;11.98;;;1.70;99.60;;;;;;4938731;29;20549;-75
2022/12/13 07:21:30;;;;;;;16.42;10.85;;;1.70;99.60;;;;;;4955491;29;20217;-74
2022/12/13 07:24:00;;;;;;;19.58;10.02;;;1.70;99.50;;;;;;4938571;29;20264;-74
2022/12/13 07:26:26;;;;;;;18.30;10.98;;;1.70;99.50;;;;;;4938634;29;20175;-75
2022/12/13 07:28:53;;;;;;;16.90;10.05;;;1.70;99.50;;;;;;4938501;29;20660;-74
2022/12/13 07:31:19;;;;;;;16.48;9.98;;;1.70;99.80;;;;;;4931996;29;20214;-74
2022/12/13 07:33:45;;;;;;;17.30;12.13;;;1.70;99.50;;;;;;4904005;29;20722;-75
2022/12/13 07:36:14;;;;;;;17.95;10.52;;;1.70;99.50;;;;;;4911701;29;20214;-75
2022/12/13 07:38:45;;;;;;;17.25;11.50;;;1.70;99.50;;;;;;4938473;29;20175;-75
2022/12/13 07:41:13;;;;;;;17.70;10.85;;;1.60;99.40;;;;;;4936653;29;20213;-74
2022/12/13 07:43:39;;;;;;;21.20;11.43;;;1.70;99.50;;;;;;4938536;29;20686;-75
2022/12/13 07:46:06;;;;;;;18.63;10.90;;;1.70;99.50;;;;;;4921934;29;20284;-75
2022/12/13 07:48:35;;;;;;;18.33;11.10;;;1.60;99.40;;;;;;4906693;29;20418;-75
2022/12/13 07:51:07;;;;;;;14.27;9.73;;;1.60;99.40;;;;;;4921541;28;20676;-75
2022/12/13 07:53:35;;;;;;;18.17;9.25;;;1.60;99.40;;;;;;4938699;29;20193;-75
2022/12/13 07:56:05;;;;;;;17.98;10.30;;;1.60;99.40;;;;;;4938591;29;20178;-74
2022/12/13 07:58:34;;;;;;;18.52;10.23;;;1.60;99.40;;;;;;4938255;29;20175;-75
2022/12/13 08:01:07;;;;;;;18.50;11.75;;;1.60;99.40;;;;;;4936144;29;20238;-75
2022/12/13 08:03:36;;;;;;;18.38;11.45;;;1.60;99.40;;;;;;4922221;29;20570;-75
2022/12/13 08:06:08;;;;;;;17.60;11.43;;;1.60;99.40;;;;;;4916883;28;20193;-75
2022/12/13 08:08:36;;;;;;;16.50;10.57;;;1.60;99.40;;;;;;4966296;28;20180;-75
2022/12/13 08:11:02;;;;;;;16.63;10.60;;;1.60;99.40;;;;;;4959482;28;20211;-74
2022/12/13 08:13:28;;;;;;;21.30;11.40;;;1.60;99.30;;;;;;4939370;28;20590;-74
2022/12/13 08:16:01;;;;;;;15.70;10.30;;;1.60;99.30;;;;;;4922141;29;20872;-74
2022/12/13 08:18:30;;;;;;;17.50;10.75;;;1.60;99.30;;;;;;4940299;28;20208;-74
2022/12/13 08:21:06;;;;;;;20.35;11.95;;;1.60;99.30;;;;;;4937052;29;20272;-74
2022/12/13 08:23:35;;;;;;;18.67;11.23;;;1.50;99.30;;;;;;4959731;28;20307;-75
2022/12/13 08:26:04;;;;;;;20.17;11.65;;;1.50;99.30;;;;;;4954967;28;20679;-74
2022/12/13 08:28:32;;;;;;;21.10;11.77;;;1.50;99.30;;;;;;4941387;29;20183;-74
2022/12/13 08:31:13;;;;;;;22.20;11.38;;;1.50;99.30;;;;;;4953382;28;20625;-74
2022/12/13 08:33:42;;;;;;;17.92;11.50;;;1.50;99.40;;;;;;4969276;28;20279;-74
2022/12/13 08:36:15;;;;;;;18.27;11.30;;;1.50;99.40;;;;;;4954582;29;20732;-74
2022/12/13 08:38:46;;;;;;;16.88;11.23;;;1.50;99.40;;;;;;4965799;28;20193;-75
2022/12/13 08:41:12;;;;;;;19.70;10.97;;;1.50;99.40;;;;;;4921252;29;20206;-74
2022/12/13 08:43:40;;;;;;;18.85;11.20;;;1.50;99.40;;;;;;4960386;28;20528;-74
2022/12/13 08:46:09;;;;;;;18.52;10.65;;;1.50;99.40;;;;;;4918889;29;20701;-74
2022/12/13 08:48:38;;;;;;;21.38;11.93;;;1.50;99.40;;;;;;4919935;29;20291;-74
2022/12/13 08:51:06;;;;;;;16.10;10.87;;;1.50;99.50;;;;;;5156310;23;20869;-74
2022/12/13 08:53:35;;;;;;;18.60;11.18;;;1.40;99.40;;;;;;5010212;28;20474;-74
2022/12/13 08:56:04;;;;;;;23.35;13.20;;;1.50;99.50;;;;;;4982840;28;20217;-74
2022/12/13 08:58:30;;;;;;;17.90;11.80;;;1.50;99.50;;;;;;4996454;28;20264;-74
2022/12/13 09:00:59;;;;;;;17.63;10.70;;;1.40;99.50;;;;;;4994959;28;20619;-74
2022/12/13 09:03:27;;;;;;;19.77;12.07;;;1.40;99.50;;;;;;4959394;28;20579;-74
2022/12/13 09:05:55;;;;;;;18.20;10.52;;;1.40;99.50;;;;;;4978022;28;20197;-74
2022/12/13 09:08:21;;;;;;;18.02;11.07;;;1.40;99.50;;;;;;4977992;28;20181;-74
2022/12/13 09:10:59;;;;;;;19.47;11.90;;;1.40;99.50;;;;;;4978237;28;20196;-74
2022/12/13 09:13:27;;;;;;;18.02;10.88;;;1.40;99.50;;;;;;5010875;28;20952;-74
2022/12/13 09:15:53;;;;;;;22.77;11.93;;;1.40;99.60;;;;;;4993688;28;20225;-74
2022/12/13 09:18:19;;;;;;;15.93;10.27;;;1.40;99.60;;;;;;5007640;28;20178;-73
2022/12/13 09:20:48;;;;;;;21.63;11.75;;;1.40;99.60;;;;;;4985891;28;20420;-73
2022/12/13 09:23:15;;;;;;;20.52;11.70;;;1.40;99.60;;;;;;4977781;28;20288;-74
2022/12/13 09:25:41;;;;;;;20.65;10.20;;;1.50;99.60;;;;;;4993439;28;20177;-73
2022/12/13 09:28:09;;;;;;;19.75;11.00;;;1.40;99.50;;;;;;5011456;28;20631;-75
2022/12/13 09:30:37;;;;;;;18.23;10.32;;;1.40;99.60;;;;;;5011645;28;20256;-75
2022/12/13 09:33:03;;;;;;;22.70;11.60;;;1.40;99.60;;;;;;4991316;28;20282;-74
2022/12/13 09:35:32;;;;;;;17.90;10.10;;;1.40;99.70;;;;;;4975097;28;20188;-74
2022/12/13 09:38:00;;;;;;;16.95;11.05;;;1.40;99.80;;;;;;4965278;28;20182;-74
2022/12/13 09:40:29;;;;;;;18.40;11.13;;;1.40;99.90;;;;;;4978099;28;20184;-74
2022/12/13 09:43:01;;;;;;;19.45;11.35;;;1.40;99.80;;;;;;4988182;28;20268;-73
2022/12/13 09:45:49;;;;;;;18.40;10.82;;;1.40;99.80;;;;;;4996279;28;20249;-73
2022/12/13 09:48:19;;;;;;;17.95;10.18;;;1.40;99.80;;;;;;4993649;28;20161;-74
2022/12/13 09:50:46;;;;;;;18.55;10.55;;;1.40;99.80;;;;;;5001094;28;20578;-73
2022/12/13 09:53:16;;;;;;;18.05;10.50;;;1.40;99.90;;;;;;4976025;28;20295;-73
2022/12/13 09:55:49;;;;;;;16.75;11.00;;;1.40;99.90;;;;;;5005297;28;20172;-74
2022/12/13 09:58:29;;;;;;;16.77;10.23;;;1.40;99.80;;;;;;4992000;28;20347;-74
2022/12/13 10:01:00;;;;;;;17.85;11.63;;;1.40;99.90;;;;;;4991467;28;20251;-73
2022/12/13 10:03:29;;;;;;;16.42;10.23;;;1.40;99.90;;;;;;4995718;28;20228;-74
2022/12/13 10:05:59;;;;;;;17.35;9.70;;;1.40;99.90;;;;;;5009274;28;20173;-74
2022/12/13 10:08:39;;;;;;;17.98;10.18;;;1.40;99.90;;;;;;4993694;28;20661;-74
2022/12/13 10:11:05;;;;;;;22.20;11.82;;;1.40;99.90;;;;;;4992745;28;20204;-73
2022/12/13 10:13:47;;;;;;;19.13;11.10;;;1.40;99.90;;;;;;4993113;28;20196;-73
2022/12/13 10:16:18;;;;;;;16.90;10.65;;;1.40;99.90;;;;;;4993729;28;20454;-73
2022/12/13 10:18:45;;;;;;;15.55;10.23;;;1.40;99.90;;;;;;4980344;28;20343;-73
2022/12/13 10:21:26;;;;;;;18.45;9.48;;;1.40;99.90;;;;;;4991498;28;20211;-73
2022/12/13 10:24:05;;;;;;;16.02;9.50;;;1.40;99.90;;;;;;4989129;28;20534;-73
2022/12/13 10:26:36;;;;;;;17.13;9.35;;;1.50;99.90;;;;;;4997305;28;20204;-74
2022/12/13 10:29:07;;;;;;;15.95;9.77;;;1.50;99.90;;;;;;4967483;28;20263;-73
2022/12/13 10:31:41;;;;;;;15.45;10.00;;;1.50;99.90;;;;;;4989267;28;20293;-73
2022/12/13 10:34:20;;;;;;;14.98;9.70;;;1.50;99.90;;;;;;4962475;28;20207;-73
2022/12/13 10:36:47;;;;;;;13.85;9.68;;;1.50;99.90;;;;;;4961726;28;20188;-73
2022/12/13 10:39:34;;;;;;;17.08;10.00;;;1.50;99.90;;;;;;5004787;28;20199;-73
2022/12/13 10:42:05;;;;;;;16.98;9.90;;;1.50;99.90;;;;;;4988795;28;20580;-73
2022/12/13 10:44:31;;;;;;;15.15;9.60;;;1.50;99.90;;;;;;4993208;28;20195;-73
2022/12/13 10:47:16;;;;;;;16.77;10.60;;;1.60;99.90;;;;;;4997875;28;20169;-73
2022/12/13 10:49:53;;;;;;;18.10;10.23;;;1.50;99.80;;;;;;4979100;28;20285;-73
2022/12/13 10:52:43;;;;;;;14.90;9.10;;;1.50;99.90;;;;;;5000806;28;20265;-72
2022/12/13 10:55:32;;;;;;;16.88;9.82;;;1.60;99.80;;;;;;4980388;28;20579;-71
2022/12/13 10:58:02;;;;;;;13.10;8.50;;;1.60;99.70;;;;;;4996326;28;20208;-72
2022/12/13 11:00:37;;;;;;;19.42;10.25;;;1.60;99.50;;;;;;4996045;28;20509;-74
2022/12/13 11:03:09;;;;;;;19.65;10.70;;;1.60;99.50;;;;;;4960619;28;20248;-73
2022/12/13 11:05:39;;;;;;;15.25;9.48;;;1.60;99.50;;;;;;5001879;28;20207;-74
2022/12/13 11:08:19;;;;;;;13.20;8.65;;;1.60;99.40;;;;;;4978387;28;20239;-72
2022/12/13 11:10:54;;;;;;;15.75;8.63;;;1.60;99.40;;;;;;4994335;28;20291;-75
2022/12/13 11:13:50;;;;;;;13.50;8.60;;;1.60;99.40;;;;;;4978187;28;20185;-74
2022/12/13 11:16:34;;;;;;;14.60;9.10;;;1.60;99.30;;;;;;4978463;28;20201;-72
2022/12/13 11:19:23;;;;;;;15.88;9.15;;;1.60;99.30;;;;;;4976512;28;20239;-74
2022/12/13 11:21:53;;;;;;;14.30;9.35;;;1.60;99.30;;;;;;4993050;28;20713;-73
2022/12/13 11:24:31;;;;;;;19.23;8.75;;;1.60;99.20;;;;;;4989282;28;20227;-72
2022/12/13 11:27:23;;;;;;;15.77;9.13;;;1.60;99.20;;;;;;4991752;28;20265;-77
2022/12/13 11:30:02;;;;;;;12.73;9.27;;;1.60;99.10;;;;;;4981268;28;20605;-76
2022/12/13 11:32:43;;;;;;;13.43;8.73;;;1.70;99.10;;;;;;4995915;28;20255;-77
2022/12/13 11:35:24;;;;;;;16.40;9.10;;;1.70;99.10;;;;;;4979475;28;20772;-75
2022/12/13 11:38:22;;;;;;;14.07;8.30;;;1.70;99.00;;;;;;4980272;28;20234;-76
2022/12/13 11:41:10;;;;;;;16.15;8.90;;;1.70;99.10;;;;;;4970010;28;20214;-76
2022/12/13 11:43:48;;;;;;;14.20;8.77;;;1.70;99.00;;;;;;4980226;28;20228;-76
2022/12/13 11:46:39;;;;;;;34.45;10.23;;;1.70;99.00;;;;;;4997134;28;20178;-76
2022/12/13 11:49:16;;;;;;;16.80;8.88;;;1.70;99.00;;;;;;4980446;28;20255;-77
2022/12/13 11:51:56;;;;;;;13.93;7.72;;;1.70;99.00;;;;;;4989712;28;20221;-72
2022/12/13 11:54:38;;;;;;;15.52;9.13;;;1.70;99.10;;;;;;4994332;28;20208;-73
2022/12/13 11:57:15;;;;;;;14.13;8.82;;;1.70;99.00;;;;;;4982982;28;20170;-74
2022/12/13 12:00:01;;;;;;;13.85;8.52;;;1.70;99.00;;;;;;4980308;28;20257;-72
2022/12/13 12:02:41;;;;;;;12.88;7.78;;;1.70;99.10;;;;;;4976649;28;20197;-73
2022/12/13 12:05:29;;;;;;;11.77;7.65;;;1.80;99.10;;;;;;5002475;28;20232;-73
2022/12/13 12:08:30;;;;;;;13.75;8.00;;;1.80;99.10;;;;;;4996072;28;20664;-73
2022/12/13 12:11:27;;;;;;;14.40;8.55;;;1.80;99.10;;;;;;4974316;28;20241;-73
2022/12/13 12:14:16;;;;;;;13.65;8.50;;;1.80;99.10;;;;;;4970085;28;20213;-73
2022/12/13 12:16:55;;;;;;;13.07;8.40;;;1.80;99.10;;;;;;4974751;28;20194;-73
2022/12/13 12:19:28;;;;;;;15.15;8.00;;;1.80;99.10;;;;;;4975814;28;20201;-73
2022/12/13 12:22:00;;;;;;;11.95;7.25;;;1.80;99.10;;;;;;4977159;28;20194;-73
2022/12/13 12:24:31;;;;;;;15.02;8.18;;;1.80;99.00;;;;;;4974184;28;20220;-73
2022/12/13 12:27:15;;;;;;;13.27;7.85;;;1.80;99.10;;;;;;4943619;28;20189;-73
2022/12/13 12:29:58;;;;;;;13.73;8.60;;;1.80;99.00;;;;;;4975830;28;20544;-73
2022/12/13 12:32:30;;;;;;;12.55;7.45;;;1.80;98.90;;;;;;4975780;28;20687;-73
2022/12/13 12:35:09;;;;;;;13.15;8.45;;;1.80;98.90;;;;;;4990415;28;20547;-73
2022/12/13 12:38:00;;;;;;;13.55;7.88;;;1.80;99.00;;;;;;4995155;28;20566;-73
2022/12/13 12:40:44;;;;;;;13.55;7.35;;;1.90;99.00;;;;;;4990066;28;20189;-73
2022/12/13 12:43:30;;;;;;;12.15;8.18;;;1.80;98.90;;;;;;4970336;28;20611;-73
2022/12/13 12:46:01;;;;;;;10.13;6.80;;;1.80;98.90;;;;;;5012358;28;20285;-73
2022/12/13 12:48:33;;;;;;;13.43;8.10;;;1.80;99.00;;;;;;5008198;28;20274;-73
2022/12/13 12:51:14;;;;;;;11.30;7.85;;;1.90;99.10;;;;;;4981859;28;20675;-73
2022/12/13 12:54:11;;;;;;;13.38;7.68;;;1.90;99.10;;;;;;5007117;28;20679;-73
2022/12/13 12:56:55;;;;;;;15.32;8.60;;;1.90;99.10;;;;;;4975141;28;20178;-74
2022/12/13 12:59:40;;;;;;;13.38;7.90;;;1.90;99.10;;;;;;4976795;28;20613;-74
2022/12/13 13:02:26;;;;;;;11.85;8.30;;;1.90;99.10;;;;;;5012108;28;20200;-74
2022/12/13 13:05:07;;;;;;;13.45;8.13;;;1.90;99.10;;;;;;4990683;28;20677;-74
2022/12/13 13:07:41;;;;;;;11.65;7.93;;;1.90;99.10;;;;;;5003333;28;20177;-74
2022/12/13 13:10:17;;;;;;;15.02;7.97;;;1.90;99.10;;;;;;4986148;28;20225;-74
2022/12/13 13:12:48;;;;;;;13.13;6.85;;;1.90;99.10;;;;;;4975696;28;20248;-74